createdAt,value
2017-12-12T00:01:17.340Z,77.26
2017-12-12T00:03:49.848Z,77.34
2017-12-12T00:06:23.647Z,76.62
2017-12-12T00:08:55.566Z,76.64
2017-12-12T00:11:26.494Z,76.09
2017-12-12T00:13:57.305Z,76.06
2017-12-12T00:16:28.753Z,76.14
2017-12-12T00:19:00.395Z,76.08
2017-12-12T00:21:31.776Z,76.58
2017-12-12T00:24:04.054Z,76.53
2017-12-12T00:26:36.213Z,76.66
2017-12-12T00:29:08.440Z,76.60
2017-12-12T00:31:40.047Z,76.03
2017-12-12T00:34:12.669Z,75.76
2017-12-12T00:36:44.846Z,74.98
2017-12-12T00:39:16.871Z,74.93
2017-12-12T00:41:48.868Z,75.17
2017-12-12T00:44:20.572Z,75.39
2017-12-12T00:46:51.687Z,75.70
2017-12-12T00:49:22.125Z,76.18
2017-12-12T00:51:52.887Z,75.47
2017-12-12T00:54:23.151Z,75.29
2017-12-12T00:56:53.423Z,75.23
2017-12-12T00:59:23.766Z,75.84
2017-12-12T01:01:54.247Z,76.09
2017-12-12T01:04:24.583Z,76.52
2017-12-12T01:06:55.197Z,76.34
2017-12-12T01:09:26.012Z,76.12
2017-12-12T01:11:56.303Z,76.01
2017-12-12T01:14:26.692Z,75.58
2017-12-12T01:16:57.120Z,75.83
2017-12-12T01:19:27.485Z,75.87
2017-12-12T01:21:58.239Z,75.73
2017-12-12T01:24:28.567Z,76.06
2017-12-12T01:26:58.858Z,75.62
2017-12-12T01:29:29.268Z,75.44
2017-12-12T01:32:00.754Z,75.24
2017-12-12T01:34:32.178Z,75.10
2017-12-12T01:37:02.496Z,74.86
2017-12-12T01:39:33.428Z,75.11
2017-12-12T01:42:03.791Z,75.47
2017-12-12T01:44:34.677Z,75.81
2017-12-12T01:47:06.595Z,76.09
2017-12-12T01:49:37.154Z,75.57
2017-12-12T01:52:07.417Z,76.00
2017-12-12T01:54:38.049Z,76.07
2017-12-12T01:57:09.098Z,76.20
2017-12-12T01:59:39.839Z,75.69
2017-12-12T02:02:11.698Z,75.84
2017-12-12T02:04:42.291Z,75.82
2017-12-12T02:07:12.983Z,76.26
2017-12-12T02:09:44.683Z,76.21
2017-12-12T02:12:15.340Z,76.23
2017-12-12T02:14:57.460Z,75.90
2017-12-12T02:17:28.104Z,76.05
2017-12-12T02:19:58.443Z,75.78
2017-12-12T02:22:29.037Z,75.22
2017-12-12T02:24:59.565Z,75.80
2017-12-12T02:27:29.918Z,75.13
2017-12-12T02:30:00.504Z,75.08
2017-12-12T02:32:33.476Z,74.89
2017-12-12T02:35:03.888Z,74.44
2017-12-12T02:37:34.275Z,74.56
2017-12-12T02:40:04.730Z,74.12
2017-12-12T02:42:35.123Z,74.15
2017-12-12T02:45:09.132Z,73.95
2017-12-12T02:47:39.482Z,74.17
2017-12-12T02:50:09.778Z,74.21
2017-12-12T02:52:40.066Z,74.62
2017-12-12T02:55:11.695Z,74.08
2017-12-12T02:57:42.149Z,74.39
2017-12-12T03:00:18.982Z,74.91
2017-12-12T03:02:49.776Z,74.67
2017-12-12T03:05:20.253Z,74.76
2017-12-12T03:07:55.816Z,74.51
2017-12-12T03:10:28.112Z,74.34
2017-12-12T03:12:59.424Z,74.22
2017-12-12T03:15:30.590Z,73.82
2017-12-12T03:18:01.957Z,74.04
2017-12-12T03:20:32.670Z,73.91
2017-12-12T03:23:03.791Z,74.13
2017-12-12T03:25:34.748Z,73.89
2017-12-12T03:28:05.685Z,73.94
2017-12-12T03:30:36.171Z,73.81
2017-12-12T03:33:07.269Z,73.67
2017-12-12T03:35:37.669Z,73.61
2017-12-12T03:38:08.741Z,74.01
2017-12-12T03:40:39.330Z,73.97
2017-12-12T03:43:11.735Z,74.62
2017-12-12T03:45:42.600Z,75.43
2017-12-12T03:48:12.845Z,75.57
2017-12-12T03:50:43.326Z,76.17
2017-12-12T03:53:13.814Z,76.28
2017-12-12T03:55:44.499Z,76.88
2017-12-12T03:58:14.793Z,77.16
2017-12-12T04:00:46.793Z,76.26
2017-12-12T04:03:18.632Z,76.49
2017-12-12T04:05:48.964Z,76.15
2017-12-12T04:08:19.275Z,76.01
2017-12-12T04:10:49.546Z,75.79
2017-12-12T04:13:19.920Z,75.56
2017-12-12T04:15:50.810Z,75.24
2017-12-12T04:18:21.199Z,75.87
2017-12-12T04:20:51.659Z,75.75
2017-12-12T04:23:22.207Z,76.01
2017-12-12T04:25:52.952Z,75.93
2017-12-12T04:28:23.262Z,75.17
2017-12-12T04:30:54.665Z,75.73
2017-12-12T04:33:25.020Z,75.40
2017-12-12T04:35:55.687Z,74.93
2017-12-12T04:38:26.089Z,74.58
2017-12-12T04:40:56.789Z,74.56
2017-12-12T04:43:28.063Z,74.37
2017-12-12T04:45:58.631Z,74.43
2017-12-12T04:48:29.054Z,74.64
2017-12-12T04:50:59.706Z,74.55
2017-12-12T04:53:30.166Z,74.76
2017-12-12T04:56:00.568Z,74.57
2017-12-12T04:58:30.956Z,74.58
2017-12-12T05:01:01.817Z,74.53
2017-12-12T05:03:32.470Z,74.33
2017-12-12T05:06:02.828Z,73.83
2017-12-12T05:08:33.401Z,73.61
2017-12-12T05:11:03.743Z,73.71
2017-12-12T05:13:34.000Z,73.86
2017-12-12T05:16:06.073Z,73.73
2017-12-12T05:18:37.428Z,74.00
2017-12-12T05:21:08.827Z,74.13
2017-12-12T05:23:39.935Z,74.12
2017-12-12T05:26:12.490Z,73.74
2017-12-12T05:28:44.004Z,73.32
2017-12-12T05:31:14.792Z,73.33
2017-12-12T05:33:46.229Z,73.37
2017-12-12T05:36:16.546Z,73.60
2017-12-12T05:38:46.938Z,73.47
2017-12-12T05:41:17.496Z,73.18
2017-12-12T05:43:47.782Z,72.89
2017-12-12T05:46:18.046Z,73.13
2017-12-12T05:48:48.580Z,73.00
2017-12-12T05:51:22.100Z,72.57
2017-12-12T05:53:52.612Z,72.62
2017-12-12T05:56:23.721Z,72.79
2017-12-12T05:58:56.333Z,73.01
2017-12-12T06:01:27.313Z,72.96
2017-12-12T06:03:58.822Z,72.62
2017-12-12T06:06:29.099Z,72.41
2017-12-12T06:08:59.807Z,72.51
2017-12-12T06:11:30.178Z,72.71
2017-12-12T06:14:00.658Z,72.60
2017-12-12T06:16:31.349Z,72.45
2017-12-12T06:19:01.967Z,72.76
2017-12-12T06:21:32.327Z,72.76
2017-12-12T06:24:02.924Z,72.58
2017-12-12T06:26:33.509Z,72.38
2017-12-12T06:29:04.152Z,72.61
2017-12-12T06:31:34.929Z,72.60
2017-12-12T06:34:05.607Z,72.44
2017-12-12T06:36:37.936Z,72.51
2017-12-12T06:39:08.985Z,72.89
2017-12-12T06:41:39.350Z,73.36
2017-12-12T06:44:20.363Z,72.93
2017-12-12T06:46:51.965Z,72.75
2017-12-12T06:49:23.425Z,72.72
2017-12-12T06:51:54.428Z,73.55
2017-12-12T06:54:28.441Z,73.41
2017-12-12T06:56:59.119Z,73.45
2017-12-12T06:59:29.747Z,74.12
2017-12-12T07:02:00.786Z,73.86
2017-12-12T07:04:31.202Z,73.82
2017-12-12T07:07:01.856Z,73.59
2017-12-12T07:09:34.098Z,73.52
2017-12-12T07:12:07.234Z,73.35
2017-12-12T07:14:39.055Z,73.25
2017-12-12T07:17:10.448Z,72.86
2017-12-12T07:19:44.009Z,72.68
2017-12-12T07:22:15.686Z,73.04
2017-12-12T07:24:46.733Z,72.89
2017-12-12T07:27:25.356Z,73.14
2017-12-12T07:29:56.264Z,73.48
2017-12-12T07:32:28.798Z,73.61
2017-12-12T07:34:59.916Z,73.11
2017-12-12T07:37:30.367Z,72.65
2017-12-12T07:40:01.164Z,72.57
2017-12-12T07:42:33.296Z,72.41
2017-12-12T07:45:07.628Z,72.56
2017-12-12T07:47:38.323Z,72.51
2017-12-12T07:50:09.777Z,72.36
2017-12-12T07:52:40.331Z,72.34
2017-12-12T07:55:11.492Z,72.43
2017-12-12T07:57:43.388Z,72.53
2017-12-12T08:00:18.316Z,72.68
2017-12-12T08:03:01.202Z,72.70
2017-12-12T08:05:33.114Z,72.64
2017-12-12T08:08:03.852Z,72.49
2017-12-12T08:10:35.316Z,72.26
2017-12-12T08:13:06.282Z,72.25
2017-12-12T08:15:36.798Z,72.39
2017-12-12T08:18:12.184Z,72.33
2017-12-12T08:20:42.953Z,72.53
2017-12-12T08:23:14.124Z,72.24
2017-12-12T08:25:44.854Z,72.88
2017-12-12T08:28:15.192Z,73.52
2017-12-12T08:30:46.589Z,74.03
2017-12-12T08:33:17.008Z,73.98
2017-12-12T08:35:47.761Z,73.81
2017-12-12T08:38:18.046Z,73.42
2017-12-12T08:40:50.066Z,73.37
2017-12-12T08:43:20.467Z,72.83
2017-12-12T08:45:51.481Z,73.21
2017-12-12T08:48:22.331Z,72.61
2017-12-12T08:50:52.821Z,72.82
2017-12-12T08:53:23.218Z,72.75
2017-12-12T08:55:56.683Z,72.82
2017-12-12T08:58:27.510Z,72.56
2017-12-12T09:00:58.282Z,72.37
2017-12-12T09:03:29.256Z,72.04
2017-12-12T09:12:16.601Z,72.33
2017-12-12T09:14:51.789Z,71.74
2017-12-12T09:17:22.996Z,71.72
2017-12-12T09:19:54.722Z,72.03
2017-12-12T09:22:25.907Z,71.81
2017-12-12T09:24:56.332Z,71.63
2017-12-12T09:27:27.043Z,71.29
2017-12-12T09:29:58.257Z,71.52
2017-12-12T09:32:31.956Z,71.53
2017-12-12T09:35:02.373Z,71.83
2017-12-12T09:37:33.013Z,71.22
2017-12-12T09:40:03.902Z,71.19
2017-12-12T09:42:34.271Z,70.89
2017-12-12T09:45:07.641Z,71.05
2017-12-12T09:47:38.931Z,71.49
2017-12-12T09:52:51.911Z,72.05
2017-12-12T09:55:24.173Z,72.25
2017-12-12T09:57:56.315Z,72.51
2017-12-12T10:00:27.413Z,72.72
2017-12-12T10:02:58.138Z,72.48
2017-12-12T10:05:28.631Z,72.19
2017-12-12T10:08:00.722Z,72.20
2017-12-12T10:10:32.293Z,71.65
2017-12-12T10:13:03.159Z,71.84
2017-12-12T10:15:34.963Z,71.58
2017-12-12T10:18:05.408Z,72.03
2017-12-12T10:20:39.870Z,71.71
2017-12-12T10:23:12.109Z,71.68
2017-12-12T10:28:48.438Z,71.83
2017-12-12T10:31:19.759Z,72.25
2017-12-12T10:33:51.223Z,71.87
2017-12-12T10:36:21.560Z,72.06
2017-12-12T10:38:52.064Z,72.08
2017-12-12T10:41:25.771Z,71.98
2017-12-12T10:44:02.318Z,71.44
2017-12-12T10:46:34.972Z,71.11
2017-12-12T10:49:06.171Z,70.97
2017-12-12T10:51:39.853Z,70.86
2017-12-12T10:54:13.498Z,71.13
2017-12-12T10:56:46.473Z,71.18
2017-12-12T10:59:17.783Z,70.41
2017-12-12T11:01:49.850Z,69.73
2017-12-12T11:04:21.203Z,69.74
2017-12-12T11:06:51.468Z,68.83
2017-12-12T11:09:23.075Z,69.08
2017-12-12T11:11:55.512Z,68.71
2017-12-12T11:14:27.115Z,69.13
2017-12-12T11:16:58.499Z,69.54
2017-12-12T11:19:29.164Z,69.44
2017-12-12T11:22:01.602Z,69.13
2017-12-12T11:24:32.457Z,69.43
2017-12-12T11:27:03.384Z,69.74
2017-12-12T11:29:34.785Z,69.55
2017-12-12T11:32:08.857Z,69.88
2017-12-12T11:34:40.884Z,69.35
2017-12-12T11:37:12.920Z,69.11
2017-12-12T11:39:45.494Z,69.74
2017-12-12T11:42:17.930Z,70.03
2017-12-12T11:44:48.867Z,70.12
2017-12-12T11:49:50.728Z,69.19
2017-12-12T11:52:23.588Z,69.28
2017-12-12T11:54:56.300Z,69.31
2017-12-12T11:57:28.147Z,69.75
2017-12-12T12:00:00.395Z,69.58
2017-12-12T12:02:34.234Z,69.25
2017-12-12T12:05:06.791Z,68.71
2017-12-12T12:07:42.485Z,68.85
2017-12-12T12:10:15.437Z,68.37
2017-12-12T12:12:46.820Z,67.81
2017-12-12T12:15:23.761Z,67.33
2017-12-12T12:17:54.476Z,67.45
2017-12-12T12:20:26.381Z,67.25
2017-12-12T12:22:57.193Z,67.18
2017-12-12T12:25:28.352Z,66.61
2017-12-12T12:27:59.819Z,66.45
2017-12-12T12:30:32.286Z,66.81
2017-12-12T12:33:03.267Z,66.68
2017-12-12T12:35:33.857Z,66.97
2017-12-12T12:38:05.213Z,67.07
2017-12-12T12:40:42.534Z,66.96
2017-12-12T12:43:13.348Z,66.74
2017-12-12T12:45:47.063Z,67.11
2017-12-12T12:48:21.383Z,67.22
2017-12-12T12:50:52.726Z,67.95
2017-12-12T12:53:23.655Z,67.62
2017-12-12T12:55:54.677Z,67.62
2017-12-12T12:58:25.835Z,67.31
2017-12-12T13:00:56.478Z,68.09
2017-12-12T13:03:26.745Z,67.65
2017-12-12T13:06:00.192Z,68.19
2017-12-12T13:08:31.968Z,68.87
2017-12-12T13:11:03.245Z,68.06
2017-12-12T13:13:34.627Z,68.16
2017-12-12T13:16:06.037Z,68.31
2017-12-12T13:18:38.363Z,68.39
2017-12-12T13:21:13.293Z,68.41
2017-12-12T13:23:49.691Z,68.25
2017-12-12T13:26:23.992Z,68.17
2017-12-12T13:28:55.080Z,67.85
2017-12-12T13:31:27.182Z,67.67
2017-12-12T13:33:59.145Z,67.25
2017-12-12T13:36:30.950Z,67.24
2017-12-12T13:39:02.571Z,66.90
2017-12-12T13:41:35.902Z,66.61
2017-12-12T13:47:39.587Z,64.08
2017-12-12T13:50:21.435Z,64.45
2017-12-12T13:52:55.677Z,65.16
2017-12-12T13:55:30.347Z,65.02
2017-12-12T13:58:06.614Z,64.94
2017-12-12T14:00:44.364Z,64.51
2017-12-12T14:03:21.129Z,64.83
2017-12-12T14:05:58.816Z,65.48
2017-12-12T14:08:34.251Z,65.76
2017-12-12T14:11:09.686Z,66.14
2017-12-12T14:13:42.320Z,66.54
2017-12-12T14:16:16.201Z,66.25
2017-12-12T14:18:52.649Z,66.38
2017-12-12T14:21:28.465Z,66.20
2017-12-12T14:24:06.976Z,66.46
2017-12-12T14:26:39.353Z,67.02
2017-12-12T14:29:12.411Z,66.51
2017-12-12T14:31:43.979Z,66.77
2017-12-12T14:34:19.396Z,66.67
2017-12-12T14:36:51.661Z,67.25
2017-12-12T14:39:25.339Z,67.55
2017-12-12T14:42:01.148Z,67.41
2017-12-12T14:44:36.032Z,67.43
2017-12-12T14:47:10.265Z,67.28
2017-12-12T14:49:44.420Z,67.18
2017-12-12T14:52:17.684Z,66.99
2017-12-12T14:54:48.930Z,66.74
2017-12-12T14:57:21.165Z,66.97
2017-12-12T14:59:54.018Z,66.87
2017-12-12T15:02:28.626Z,66.89
2017-12-12T15:05:02.423Z,66.58
2017-12-12T15:07:36.164Z,66.46
2017-12-12T15:10:09.386Z,66.88
2017-12-12T15:12:54.448Z,66.79
2017-12-12T15:21:26.828Z,67.09
2017-12-12T15:24:02.370Z,66.65
2017-12-12T15:26:37.896Z,67.21
2017-12-12T15:29:23.331Z,67.08
2017-12-12T15:32:06.548Z,66.50
2017-12-12T15:42:04.389Z,68.22
2017-12-12T15:44:36.365Z,67.73
2017-12-12T15:47:10.004Z,67.73
2017-12-12T15:49:42.990Z,67.47
2017-12-12T15:52:17.103Z,67.47
2017-12-12T15:54:49.551Z,67.47
2017-12-12T15:57:22.405Z,67.63
2017-12-12T15:59:57.814Z,67.55
2017-12-12T16:02:29.945Z,67.64
2017-12-12T16:05:02.764Z,67.64
2017-12-12T16:07:34.600Z,67.63
2017-12-12T16:10:06.266Z,67.77
2017-12-12T16:12:37.115Z,67.93
2017-12-12T16:15:15.389Z,67.96
2017-12-12T16:17:46.383Z,67.51
2017-12-12T16:20:16.835Z,67.37
2017-12-12T16:22:48.023Z,67.17
2017-12-12T16:25:20.055Z,67.32
2017-12-12T16:27:54.197Z,67.26
2017-12-12T16:30:25.263Z,67.28
2017-12-12T16:32:57.106Z,67.52
2017-12-12T16:35:39.339Z,67.60
2017-12-12T16:38:12.003Z,67.85
2017-12-12T16:40:42.738Z,67.62
2017-12-12T16:43:16.129Z,67.57
2017-12-12T16:45:50.288Z,67.86
2017-12-12T16:51:01.420Z,66.95
2017-12-12T16:53:36.788Z,66.61
2017-12-12T16:56:21.061Z,66.61
2017-12-12T16:58:55.671Z,67.14
2017-12-12T17:01:27.100Z,66.87
2017-12-12T17:03:58.291Z,66.54
2017-12-12T17:06:29.196Z,66.86
2017-12-12T17:08:59.552Z,66.51
2017-12-12T17:11:31.966Z,66.62
2017-12-12T17:14:03.584Z,66.33
2017-12-12T17:16:36.470Z,65.88
2017-12-12T17:19:07.864Z,66.17
2017-12-12T17:21:38.727Z,66.24
2017-12-12T17:24:15.930Z,66.10
2017-12-12T17:26:51.573Z,66.90
2017-12-12T17:29:23.804Z,66.52
2017-12-12T17:32:02.715Z,66.44
2017-12-12T17:34:36.760Z,66.47
2017-12-12T17:37:09.022Z,66.93
2017-12-12T17:39:39.537Z,67.07
2017-12-12T17:42:10.965Z,67.12
2017-12-12T17:44:41.437Z,66.71
2017-12-12T17:47:15.374Z,66.84
2017-12-12T17:49:46.470Z,67.53
2017-12-12T17:52:22.631Z,67.73
2017-12-12T17:54:55.665Z,67.27
2017-12-12T17:57:27.594Z,66.66
2017-12-12T18:02:53.390Z,65.96
2017-12-12T18:05:25.575Z,66.21
2017-12-12T18:07:58.721Z,66.27
2017-12-12T18:10:38.438Z,66.35
2017-12-12T18:13:14.604Z,65.90
2017-12-12T18:15:48.380Z,66.17
2017-12-12T18:18:25.426Z,66.53
2017-12-12T18:21:12.398Z,66.38
2017-12-12T18:23:43.329Z,66.11
2017-12-12T18:26:19.432Z,65.90
2017-12-12T18:28:52.236Z,65.59
2017-12-12T18:31:38.886Z,65.58
2017-12-12T18:34:21.405Z,65.72
2017-12-12T18:36:55.235Z,65.84
2017-12-12T18:39:27.612Z,65.41
2017-12-12T18:41:59.152Z,64.78
2017-12-12T18:44:29.564Z,65.45
2017-12-12T18:47:03.147Z,65.50
2017-12-12T18:49:39.729Z,65.25
2017-12-12T18:52:10.326Z,65.86
2017-12-12T18:54:41.133Z,65.18
2017-12-12T18:57:13.950Z,65.84
2017-12-12T18:59:52.305Z,65.26
2017-12-12T19:02:31.331Z,64.98
2017-12-12T19:05:04.345Z,65.12
2017-12-12T19:07:35.229Z,64.92
2017-12-12T19:10:07.856Z,65.02
2017-12-12T19:12:38.454Z,64.90
2017-12-12T19:15:15.902Z,64.47
2017-12-12T19:17:48.095Z,64.79
2017-12-12T19:20:20.805Z,64.32
2017-12-12T19:22:51.227Z,64.47
2017-12-12T19:25:23.338Z,63.69
2017-12-12T19:27:55.218Z,63.82
2017-12-12T19:30:27.194Z,63.35
2017-12-12T19:32:59.621Z,63.73
2017-12-12T19:35:32.069Z,63.53
2017-12-12T19:38:07.681Z,63.23
2017-12-12T19:40:39.346Z,63.20
2017-12-12T19:43:11.373Z,62.80
2017-12-12T19:45:42.358Z,62.49
2017-12-12T19:48:19.030Z,63.09
2017-12-12T19:50:49.822Z,63.18
2017-12-12T19:53:21.425Z,62.95
2017-12-12T19:55:51.911Z,62.50
2017-12-12T19:58:22.744Z,62.58
2017-12-12T20:00:56.820Z,61.49
2017-12-12T20:03:27.318Z,62.26
2017-12-12T20:05:58.341Z,61.88
2017-12-12T20:08:28.619Z,61.87
2017-12-12T20:10:59.161Z,61.70
2017-12-12T20:13:30.456Z,61.27
2017-12-12T20:16:02.795Z,61.15
2017-12-12T20:18:34.306Z,61.79
2017-12-12T20:21:05.785Z,61.81
2017-12-12T20:23:36.590Z,61.63
2017-12-12T20:26:10.206Z,61.35
2017-12-12T20:28:42.220Z,61.80
2017-12-12T20:31:15.233Z,61.98
2017-12-12T20:33:46.488Z,61.97
2017-12-12T20:36:18.366Z,62.16
2017-12-12T20:38:49.552Z,62.22
2017-12-12T20:41:20.142Z,63.56
2017-12-12T20:43:52.137Z,64.20
2017-12-12T20:46:26.519Z,63.84
2017-12-12T20:48:59.496Z,64.15
2017-12-12T20:51:30.054Z,64.30
2017-12-12T20:54:06.141Z,64.22
2017-12-12T20:56:36.520Z,64.64
2017-12-12T20:59:07.704Z,65.79
2017-12-12T21:01:40.673Z,66.29
2017-12-12T21:04:12.110Z,66.23
2017-12-12T21:06:43.135Z,65.65
2017-12-12T21:09:13.780Z,66.00
2017-12-12T21:11:50.443Z,66.10
2017-12-12T21:14:24.193Z,65.57
2017-12-12T21:16:57.494Z,65.42
2017-12-12T21:19:28.188Z,67.50
2017-12-12T21:21:59.274Z,67.22
2017-12-12T21:24:30.076Z,66.85
2017-12-12T21:27:01.036Z,66.21
2017-12-12T21:29:31.451Z,66.25
2017-12-12T21:32:05.183Z,66.25
2017-12-12T21:34:36.057Z,66.12
2017-12-12T21:37:06.547Z,65.76
2017-12-12T21:39:38.519Z,66.21
2017-12-12T21:42:13.069Z,65.95
2017-12-12T21:44:43.548Z,67.11
2017-12-12T21:47:19.600Z,68.78
2017-12-12T21:49:50.717Z,68.08
2017-12-12T21:52:22.190Z,68.43
2017-12-12T21:54:53.271Z,68.36
2017-12-12T21:57:24.307Z,67.87
2017-12-12T21:59:57.797Z,68.19
2017-12-12T22:02:31.899Z,68.75
2017-12-12T22:05:03.381Z,68.29
2017-12-12T22:07:34.502Z,67.82
2017-12-12T22:10:07.279Z,67.64
2017-12-12T22:12:39.203Z,67.06
2017-12-12T22:15:18.927Z,67.02
2017-12-12T22:17:49.560Z,66.45
2017-12-12T22:20:22.007Z,66.45
2017-12-12T22:22:55.086Z,66.18
2017-12-12T22:25:28.289Z,67.16
2017-12-12T22:28:01.038Z,67.29
2017-12-12T22:30:32.605Z,67.15
2017-12-12T22:33:05.102Z,66.91
2017-12-12T22:35:35.641Z,66.52
2017-12-12T22:38:14.403Z,66.05
2017-12-12T22:40:45.428Z,65.93
2017-12-12T22:43:16.324Z,65.61
2017-12-12T22:45:47.339Z,64.77
2017-12-12T22:48:18.149Z,64.99
2017-12-12T22:50:48.816Z,65.30
2017-12-12T22:53:22.817Z,64.77
2017-12-12T22:55:56.232Z,65.12
2017-12-12T22:58:28.415Z,65.09
2017-12-12T23:01:01.067Z,65.13
2017-12-12T23:03:31.816Z,65.49
2017-12-12T23:06:02.363Z,65.58
2017-12-12T23:08:35.443Z,65.21
2017-12-12T23:11:13.035Z,65.03
2017-12-12T23:13:43.855Z,65.52
2017-12-12T23:16:20.008Z,66.07
2017-12-12T23:18:52.996Z,66.04
2017-12-12T23:21:24.017Z,66.04
2017-12-12T23:23:55.443Z,66.36
2017-12-12T23:26:25.868Z,66.19
2017-12-12T23:28:57.195Z,66.62
2017-12-12T23:31:28.844Z,67.00
2017-12-12T23:34:00.427Z,67.00
2017-12-12T23:36:30.979Z,66.34
2017-12-12T23:39:03.699Z,66.00
2017-12-12T23:41:35.234Z,66.95
2017-12-12T23:44:07.525Z,66.80
2017-12-12T23:46:40.035Z,67.80
2017-12-12T23:49:13.120Z,68.72
2017-12-12T23:51:45.224Z,69.17
2017-12-12T23:54:16.710Z,68.66
2017-12-12T23:56:48.327Z,68.10
2017-12-12T23:59:19.896Z,68.92
